Time;durP1;ratioP1;P1;durP2;ratioP2;P2;SDS_P1;SDS_P2;PMS_P1;PMS_P2;Temp;Humidity;BMP_temperature;BMP_pressure;BME280_temperature;BME280_humidity;BME280_pressure;Samples;Min_cycle;Max_cycle;Signal;HPM_P1;HPM_P2
2023/09/19 00:00:27;;;;;;;5.47;2.47;;;;;;;;;;5043031;28;20538;-59
2023/09/19 00:02:59;;;;;;;4.32;2.70;;;;;;;;;;5025052;28;20059;-59
2023/09/19 00:05:25;;;;;;;4.85;2.90;;;;;;;;;;5042717;28;20026;-57
2023/09/19 00:07:58;;;;;;;3.30;2.78;;;;;;;;;;5043001;28;20032;-60
2023/09/19 00:10:24;;;;;;;4.20;2.53;;;;;;;;;;5041191;28;20675;-58
2023/09/19 00:12:55;;;;;;;4.75;2.67;;;;;;;;;;5043321;28;20079;-57
2023/09/19 00:15:21;;;;;;;3.45;2.50;;;;;;;;;;5030154;28;20036;-58
2023/09/19 00:17:47;;;;;;;5.35;3.17;;;;;;;;;;5039061;28;20095;-60
2023/09/19 00:20:13;;;;;;;5.18;3.00;;;;;;;;;;5034249;28;20140;-57
2023/09/19 00:22:42;;;;;;;4.53;2.70;;;;;;;;;;5040897;28;20140;-58
2023/09/19 00:25:08;;;;;;;4.97;3.17;;;;;;;;;;5042800;28;20197;-58
2023/09/19 00:27:33;;;;;;;4.80;2.92;;;;;;;;;;5045535;28;20108;-58
2023/09/19 00:29:59;;;;;;;4.22;2.85;;;;;;;;;;5047304;28;20048;-59
2023/09/19 00:32:24;;;;;;;4.38;3.20;;;;;;;;;;5037312;28;20185;-59
2023/09/19 00:34:49;;;;;;;4.93;2.90;;;;;;;;;;5027242;28;20088;-59
2023/09/19 00:37:15;;;;;;;4.47;2.90;;;;;;;;;;5045791;28;20154;-59
2023/09/19 00:39:40;;;;;;;4.40;3.10;;;;;;;;;;5045942;28;20405;-57
2023/09/19 00:42:07;;;;;;;5.13;3.10;;;;;;;;;;5044856;28;20267;-58
2023/09/19 00:44:34;;;;;;;5.57;3.35;;;;;;;;;;5029883;28;20048;-57
2023/09/19 00:47:00;;;;;;;5.65;3.10;;;;;;;;;;5042259;28;20559;-58
2023/09/19 00:49:25;;;;;;;4.07;2.67;;;;;;;;;;5037594;28;20057;-58
2023/09/19 00:51:51;;;;;;;4.35;3.20;;;;;;;;;;5044820;28;20090;-58
2023/09/19 00:54:18;;;;;;;3.45;2.80;;;;;;;;;;5025667;28;20034;-58
2023/09/19 00:56:44;;;;;;;3.75;2.90;;;;;;;;;;5037889;28;20033;-57
2023/09/19 00:59:09;;;;;;;4.95;2.90;;;;;;;;;;5046968;28;20091;-57
2023/09/19 01:01:35;;;;;;;5.47;3.30;;;;;;;;;;5042701;28;20034;-58
2023/09/19 01:04:00;;;;;;;4.82;3.10;;;;;;;;;;5045286;28;20037;-57
2023/09/19 01:06:26;;;;;;;3.78;2.83;;;;;;;;;;5045708;28;20036;-61
2023/09/19 01:08:51;;;;;;;4.70;3.08;;;;;;;;;;5045306;28;20114;-57
2023/09/19 01:11:32;;;;;;;6.28;3.20;;;;;;;;;;5027610;28;20029;-59
2023/09/19 01:14:13;;;;;;;3.53;2.80;;;;;;;;;;5019725;28;20037;-58
2023/09/19 01:16:39;;;;;;;4.05;2.85;;;;;;;;;;5044612;28;20037;-58
2023/09/19 01:19:23;;;;;;;3.80;2.63;;;;;;;;;;5043300;28;20095;-58
2023/09/19 01:21:55;;;;;;;6.13;3.00;;;;;;;;;;5046300;28;20045;-57
2023/09/19 01:24:39;;;;;;;5.07;2.90;;;;;;;;;;5045004;28;20040;-59
2023/09/19 01:27:18;;;;;;;3.97;3.00;;;;;;;;;;5045740;28;20040;-59
2023/09/19 01:29:48;;;;;;;5.33;2.97;;;;;;;;;;5032477;28;20048;-58
2023/09/19 01:32:14;;;;;;;;;;;;;;;;;;5047117;28;20059;-60
2023/09/19 01:34:49;;;;;;;4.35;2.78;;;;;;;;;;5045133;28;20332;-59
2023/09/19 01:37:25;;;;;;;5.00;3.13;;;;;;;;;;5044321;28;20037;-58
2023/09/19 01:43:05;;;;;;;5.68;3.05;;;;;;;;;;5024926;28;20543;-59
2023/09/19 01:45:33;;;;;;;4.25;3.03;;;;;;;;;;5044879;28;20361;-60
2023/09/19 01:48:03;;;;;;;4.00;3.00;;;;;;;;;;5021964;28;20029;-60
2023/09/19 01:50:29;;;;;;;;;;;;;;;;;;5035747;28;20033;-59
2023/09/19 01:53:00;;;;;;;4.38;2.88;;;;;;;;;;5045632;28;19939;-57
2023/09/19 01:55:26;;;;;;;4.38;3.05;;;;;;;;;;5044634;28;20474;-58
2023/09/19 01:57:52;;;;;;;5.13;3.13;;;;;;;;;;5043736;28;20437;-58
2023/09/19 02:00:18;;;;;;;4.85;3.47;;;;;;;;;;5046116;28;20025;-58
2023/09/19 02:02:47;;;;;;;5.10;3.05;;;;;;;;;;5038942;28;20471;-57
2023/09/19 02:05:12;;;;;;;5.33;3.53;;;;;;;;;;5044303;28;20044;-58
2023/09/19 02:07:38;;;;;;;5.63;3.08;;;;;;;;;;5043878;28;20033;-58
2023/09/19 02:10:05;;;;;;;5.30;3.80;;;;;;;;;;5034166;28;20053;-57
2023/09/19 02:12:32;;;;;;;5.57;3.35;;;;;;;;;;5033853;28;20045;-57
2023/09/19 02:14:58;;;;;;;5.13;2.85;;;;;;;;;;5045291;28;20067;-57
2023/09/19 02:17:27;;;;;;;3.75;3.00;;;;;;;;;;5044961;28;20037;-59
2023/09/19 02:19:53;;;;;;;4.93;3.00;;;;;;;;;;5044030;28;20052;-60
2023/09/19 02:22:18;;;;;;;4.57;3.05;;;;;;;;;;5044468;28;20441;-57
2023/09/19 02:24:43;;;;;;;3.95;3.08;;;;;;;;;;5045362;28;20139;-58
2023/09/19 02:27:09;;;;;;;4.63;2.95;;;;;;;;;;5044643;28;20132;-57
2023/09/19 02:29:34;;;;;;;3.88;2.85;;;;;;;;;;5045442;28;20504;-59
2023/09/19 02:32:01;;;;;;;4.93;3.22;;;;;;;;;;5045484;28;20025;-58
2023/09/19 02:34:27;;;;;;;6.78;3.33;;;;;;;;;;5043764;28;20051;-57
2023/09/19 02:36:55;;;;;;;4.65;3.72;;;;;;;;;;5044884;28;20029;-58
2023/09/19 02:39:21;;;;;;;5.32;3.28;;;;;;;;;;5041212;28;20033;-59
2023/09/19 02:41:46;;;;;;;6.38;3.50;;;;;;;;;;5034337;28;20104;-57
2023/09/19 02:44:11;;;;;;;4.63;3.22;;;;;;;;;;5044917;28;20624;-57
2023/09/19 02:46:37;;;;;;;3.83;3.13;;;;;;;;;;5028300;28;20025;-57
2023/09/19 02:49:06;;;;;;;4.85;3.15;;;;;;;;;;5042710;28;20107;-58
2023/09/19 02:51:32;;;;;;;5.10;3.60;;;;;;;;;;5043605;28;20029;-57
2023/09/19 02:53:58;;;;;;;4.97;3.47;;;;;;;;;;5043369;28;20482;-57
2023/09/19 02:56:24;;;;;;;5.72;3.63;;;;;;;;;;5044687;28;20044;-58
2023/09/19 02:58:51;;;;;;;5.93;3.38;;;;;;;;;;5042449;28;20033;-57
2023/09/19 03:01:18;;;;;;;4.90;3.50;;;;;;;;;;5043087;28;20485;-57
2023/09/19 03:03:43;;;;;;;5.53;3.63;;;;;;;;;;5043368;28;20416;-58
2023/09/19 03:06:12;;;;;;;5.47;3.35;;;;;;;;;;5044207;28;20037;-58
2023/09/19 03:08:39;;;;;;;7.40;3.70;;;;;;;;;;5042743;28;20072;-58
2023/09/19 03:11:05;;;;;;;4.63;3.63;;;;;;;;;;5043073;28;20119;-57
2023/09/19 03:13:31;;;;;;;4.85;3.50;;;;;;;;;;5042252;28;20033;-59
2023/09/19 03:15:58;;;;;;;5.05;3.92;;;;;;;;;;5031579;28;20035;-58
2023/09/19 03:18:26;;;;;;;4.53;3.33;;;;;;;;;;5042385;28;20052;-57
2023/09/19 03:20:59;;;;;;;6.45;4.13;;;;;;;;;;5031083;28;20107;-57
2023/09/19 03:23:25;;;;;;;7.00;3.92;;;;;;;;;;5042202;28;20041;-57
2023/09/19 03:25:52;;;;;;;5.22;3.13;;;;;;;;;;5044172;28;20091;-57
2023/09/19 03:28:17;;;;;;;5.05;3.85;;;;;;;;;;5042988;28;20618;-57
2023/09/19 03:30:43;;;;;;;5.85;3.72;;;;;;;;;;5044520;28;20116;-59
2023/09/19 03:33:11;;;;;;;5.00;3.60;;;;;;;;;;5039560;28;20761;-58
2023/09/19 03:35:37;;;;;;;4.40;3.50;;;;;;;;;;5041675;28;20041;-59
2023/09/19 03:38:03;;;;;;;6.18;4.22;;;;;;;;;;5043738;28;20005;-57
2023/09/19 03:40:28;;;;;;;6.25;4.05;;;;;;;;;;5044263;28;20401;-57
2023/09/19 03:42:54;;;;;;;5.78;4.20;;;;;;;;;;5039596;28;20425;-59
2023/09/19 03:45:20;;;;;;;7.18;3.97;;;;;;;;;;5026617;28;20075;-58
2023/09/19 03:47:48;;;;;;;5.25;4.10;;;;;;;;;;5007592;28;20053;-57
2023/09/19 03:50:17;;;;;;;5.35;3.40;;;;;;;;;;5039220;28;20377;-61
2023/09/19 03:52:42;;;;;;;5.63;3.78;;;;;;;;;;5042404;28;20025;-57
2023/09/19 03:55:09;;;;;;;4.80;3.78;;;;;;;;;;5043575;28;20025;-61
2023/09/19 03:57:35;;;;;;;6.35;3.70;;;;;;;;;;5031384;28;20177;-58
2023/09/19 04:00:01;;;;;;;5.53;3.75;;;;;;;;;;5040961;28;20505;-59
2023/09/19 04:02:32;;;;;;;6.38;3.90;;;;;;;;;;5039447;28;20036;-59
2023/09/19 04:04:57;;;;;;;5.07;3.90;;;;;;;;;;5040890;28;20116;-59
2023/09/19 04:07:23;;;;;;;6.65;4.15;;;;;;;;;;5032281;28;20124;-58
2023/09/19 04:09:49;;;;;;;5.57;4.30;;;;;;;;;;5032874;28;20398;-59
2023/09/19 04:12:16;;;;;;;5.15;4.07;;;;;;;;;;5032939;28;20037;-58
2023/09/19 04:14:42;;;;;;;6.72;4.22;;;;;;;;;;5033718;28;20037;-60
2023/09/19 04:17:07;;;;;;;7.05;4.28;;;;;;;;;;5033906;28;20040;-58
2023/09/19 04:19:32;;;;;;;5.88;4.35;;;;;;;;;;5038645;28;20051;-59
2023/09/19 04:21:58;;;;;;;7.40;4.22;;;;;;;;;;5035629;28;20033;-59
2023/09/19 04:24:23;;;;;;;5.32;3.72;;;;;;;;;;5033426;28;20045;-59
2023/09/19 04:26:48;;;;;;;6.95;4.60;;;;;;;;;;5033365;28;20044;-58
2023/09/19 04:29:14;;;;;;;7.38;4.30;;;;;;;;;;5034036;28;20071;-59
2023/09/19 04:31:40;;;;;;;7.88;4.80;;;;;;;;;;5032391;28;20055;-59
2023/09/19 04:34:05;;;;;;;7.53;4.57;;;;;;;;;;5032791;28;20033;-58
2023/09/19 04:36:30;;;;;;;7.65;4.30;;;;;;;;;;5033437;28;20550;-60
2023/09/19 04:38:56;;;;;;;7.50;4.35;;;;;;;;;;5032352;28;20040;-58
2023/09/19 04:41:22;;;;;;;7.28;4.35;;;;;;;;;;5031874;28;20086;-59
2023/09/19 04:43:47;;;;;;;6.82;4.63;;;;;;;;;;5032059;28;20030;-58
2023/09/19 04:46:14;;;;;;;6.60;4.55;;;;;;;;;;5032716;28;20430;-59
2023/09/19 04:48:39;;;;;;;6.32;4.60;;;;;;;;;;5032216;28;20045;-58
2023/09/19 04:51:05;;;;;;;6.18;4.53;;;;;;;;;;5031516;28;20495;-58
2023/09/19 04:53:30;;;;;;;8.52;4.28;;;;;;;;;;5032548;28;20097;-58
2023/09/19 04:55:56;;;;;;;6.85;4.03;;;;;;;;;;5036755;28;20033;-59
2023/09/19 04:58:22;;;;;;;10.07;5.10;;;;;;;;;;5036362;28;20091;-59
2023/09/19 05:00:47;;;;;;;6.45;4.35;;;;;;;;;;5033364;28;20037;-58
2023/09/19 05:03:13;;;;;;;7.68;4.45;;;;;;;;;;5032199;28;20447;-60
2023/09/19 05:05:42;;;;;;;5.93;4.07;;;;;;;;;;5037425;28;20989;-57
2023/09/19 05:08:09;;;;;;;6.83;4.50;;;;;;;;;;5032241;28;20038;-58
2023/09/19 05:10:35;;;;;;;11.48;4.57;;;;;;;;;;5032045;28;20073;-58
2023/09/19 05:13:00;;;;;;;10.68;4.55;;;;;;;;;;5033533;28;20072;-58
2023/09/19 05:15:26;;;;;;;8.60;4.70;;;;;;;;;;5030737;28;20047;-60
2023/09/19 05:17:54;;;;;;;7.63;4.32;;;;;;;;;;5031676;28;20032;-59
2023/09/19 05:20:29;;;;;;;7.88;4.40;;;;;;;;;;5048719;28;20033;-59
2023/09/19 05:23:01;;;;;;;5.70;3.55;;;;;;;;;;5037432;28;20037;-58
2023/09/19 05:25:29;;;;;;;7.57;3.88;;;;;;;;;;5029996;28;20387;-58
2023/09/19 05:27:54;;;;;;;7.10;4.00;;;;;;;;;;5030989;28;20036;-58
2023/09/19 05:30:20;;;;;;;6.80;3.75;;;;;;;;;;5033955;28;20430;-58
2023/09/19 05:32:45;;;;;;;5.18;3.80;;;;;;;;;;5032034;28;20046;-55
2023/09/19 05:35:12;;;;;;;5.25;3.80;;;;;;;;;;5034127;28;20037;-59
2023/09/19 05:37:38;;;;;;;6.38;3.88;;;;;;;;;;5031316;28;20559;-57
2023/09/19 05:40:07;;;;;;;7.85;3.95;;;;;;;;;;5032956;28;20041;-58
2023/09/19 05:42:32;;;;;;;6.60;3.75;;;;;;;;;;5035634;28;20709;-58
2023/09/19 05:44:58;;;;;;;6.32;3.88;;;;;;;;;;5018888;28;20057;-60
2023/09/19 05:47:25;;;;;;;8.35;3.97;;;;;;;;;;5030443;28;20044;-57
2023/09/19 05:49:50;;;;;;;6.95;4.18;;;;;;;;;;5034757;28;20065;-59
2023/09/19 05:52:17;;;;;;;6.75;4.15;;;;;;;;;;5035013;28;20152;-58
2023/09/19 05:54:43;;;;;;;6.53;3.85;;;;;;;;;;5034213;28;20666;-57
2023/09/19 05:57:08;;;;;;;6.78;4.53;;;;;;;;;;5031079;28;20029;-58
2023/09/19 05:59:34;;;;;;;6.68;3.80;;;;;;;;;;5031602;28;20037;-57
2023/09/19 06:01:59;;;;;;;6.38;4.15;;;;;;;;;;5031645;28;20052;-58
2023/09/19 06:04:25;;;;;;;8.75;4.18;;;;;;;;;;5031268;28;20499;-59
2023/09/19 06:06:51;;;;;;;7.32;4.25;;;;;;;;;;5031907;28;20065;-58
2023/09/19 06:09:17;;;;;;;6.07;3.65;;;;;;;;;;5030382;28;20156;-61
2023/09/19 06:11:42;;;;;;;4.90;3.70;;;;;;;;;;5036749;28;20052;-59
2023/09/19 06:14:07;;;;;;;9.32;4.03;;;;;;;;;;5032351;28;20501;-58
2023/09/19 06:16:33;;;;;;;7.35;3.90;;;;;;;;;;5031497;28;20041;-57
2023/09/19 06:19:01;;;;;;;5.60;3.30;;;;;;;;;;5042741;28;20790;-57
2023/09/19 06:21:26;;;;;;;6.10;3.80;;;;;;;;;;5034605;28;20049;-58
2023/09/19 06:23:52;;;;;;;6.53;4.03;;;;;;;;;;5030632;28;20040;-60
2023/09/19 06:26:17;;;;;;;7.57;3.92;;;;;;;;;;5030927;28;20452;-57
2023/09/19 06:28:43;;;;;;;5.43;3.53;;;;;;;;;;5032994;28;20052;-58
2023/09/19 06:31:09;;;;;;;6.95;3.78;;;;;;;;;;5032103;28;20120;-58
2023/09/19 06:33:41;;;;;;;5.93;3.40;;;;;;;;;;5030051;28;20589;-59
2023/09/19 06:36:06;;;;;;;6.03;3.83;;;;;;;;;;5029706;28;20130;-58
2023/09/19 06:38:34;;;;;;;5.97;3.65;;;;;;;;;;5032012;28;20120;-59
2023/09/19 06:41:01;;;;;;;4.85;2.97;;;;;;;;;;5030022;28;20039;-60
2023/09/19 06:43:26;;;;;;;7.43;3.70;;;;;;;;;;5028842;28;20049;-58
2023/09/19 06:45:51;;;;;;;6.47;3.40;;;;;;;;;;5029899;28;20033;-57
2023/09/19 06:48:18;;;;;;;7.07;3.80;;;;;;;;;;5027865;28;20057;-57
2023/09/19 06:50:44;;;;;;;4.90;3.28;;;;;;;;;;5020961;28;20481;-57
2023/09/19 06:53:10;;;;;;;7.78;3.40;;;;;;;;;;5031484;28;20044;-57
2023/09/19 06:55:36;;;;;;;6.13;3.67;;;;;;;;;;5028712;28;20034;-58
2023/09/19 06:58:01;;;;;;;6.07;3.42;;;;;;;;;;5036992;28;20123;-57
2023/09/19 07:00:28;;;;;;;8.82;3.38;;;;;;;;;;5030297;28;20071;-57
2023/09/19 07:03:04;;;;;;;6.68;3.30;;;;;;;;;;5032944;28;20803;-58
2023/09/19 07:05:30;;;;;;;4.45;3.40;;;;;;;;;;5028865;28;20199;-59
2023/09/19 07:07:55;;;;;;;4.60;3.25;;;;;;;;;;5033771;28;20041;-59
2023/09/19 07:10:23;;;;;;;6.35;3.50;;;;;;;;;;5030156;28;20060;-60
2023/09/19 07:12:54;;;;;;;6.60;3.63;;;;;;;;;;5029244;28;20033;-57
2023/09/19 07:15:20;;;;;;;5.47;3.33;;;;;;;;;;5027590;28;20040;-58
2023/09/19 07:17:45;;;;;;;5.13;2.90;;;;;;;;;;5028213;28;20037;-59
2023/09/19 07:20:16;;;;;;;5.60;3.15;;;;;;;;;;5031721;28;20864;-58
2023/09/19 07:22:41;;;;;;;6.13;3.45;;;;;;;;;;5029409;28;20030;-58
2023/09/19 07:25:07;;;;;;;6.00;3.20;;;;;;;;;;5028597;28;20029;-58
2023/09/19 07:27:32;;;;;;;6.85;3.60;;;;;;;;;;5029025;28;20421;-59
2023/09/19 07:29:58;;;;;;;6.32;3.40;;;;;;;;;;5029301;28;20513;-58
2023/09/19 07:32:24;;;;;;;5.63;3.65;;;;;;;;;;5029047;28;20033;-57
2023/09/19 07:34:49;;;;;;;5.53;3.10;;;;;;;;;;5030042;28;20029;-58
2023/09/19 07:37:15;;;;;;;5.65;3.28;;;;;;;;;;5031594;28;20168;-59
2023/09/19 07:39:41;;;;;;;6.78;3.50;;;;;;;;;;5028196;28;20021;-59
2023/09/19 07:42:07;;;;;;;7.88;3.42;;;;;;;;;;5022369;28;20029;-58
2023/09/19 07:44:32;;;;;;;8.35;3.40;;;;;;;;;;5027978;28;20017;-57
2023/09/19 07:46:58;;;;;;;5.97;3.40;;;;;;;;;;5026015;28;20037;-56
2023/09/19 07:49:23;;;;;;;7.07;3.10;;;;;;;;;;5029541;28;20028;-56
2023/09/19 07:51:49;;;;;;;5.78;3.38;;;;;;;;;;5026904;28;20450;-56
2023/09/19 07:54:14;;;;;;;7.13;3.38;;;;;;;;;;5027870;28;20079;-58
2023/09/19 07:56:40;;;;;;;5.22;3.53;;;;;;;;;;5027556;28;21814;-59
2023/09/19 07:59:06;;;;;;;6.05;3.38;;;;;;;;;;5027237;28;20504;-58
2023/09/19 08:01:32;;;;;;;5.70;3.58;;;;;;;;;;5025978;28;20105;-57
2023/09/19 08:03:58;;;;;;;5.90;3.00;;;;;;;;;;5028086;28;20485;-58
2023/09/19 08:06:24;;;;;;;5.25;3.38;;;;;;;;;;5027492;28;20036;-57
2023/09/19 08:08:53;;;;;;;5.95;3.08;;;;;;;;;;5026864;28;20051;-57
2023/09/19 08:11:21;;;;;;;6.65;3.67;;;;;;;;;;5028729;28;20458;-58
2023/09/19 08:13:48;;;;;;;5.97;3.22;;;;;;;;;;5027328;28;20036;-58
2023/09/19 08:16:14;;;;;;;8.88;3.45;;;;;;;;;;5027166;28;20032;-58
2023/09/19 08:18:40;;;;;;;4.75;3.20;;;;;;;;;;5032701;28;20037;-57
2023/09/19 08:21:07;;;;;;;6.88;3.67;;;;;;;;;;5026832;28;20045;-56
2023/09/19 08:23:33;;;;;;;4.22;3.30;;;;;;;;;;5031531;28;20111;-58
2023/09/19 08:26:02;;;;;;;7.22;3.40;;;;;;;;;;5028390;28;20533;-57
2023/09/19 08:28:29;;;;;;;5.55;3.50;;;;;;;;;;5026780;28;20033;-58
2023/09/19 08:30:55;;;;;;;5.28;3.40;;;;;;;;;;5028097;28;20052;-57
2023/09/19 08:33:20;;;;;;;6.03;3.47;;;;;;;;;;5028665;28;20616;-59
2023/09/19 08:35:46;;;;;;;5.70;3.83;;;;;;;;;;5028374;28;20487;-57
2023/09/19 08:38:11;;;;;;;5.03;3.45;;;;;;;;;;5028043;28;21499;-58
2023/09/19 08:40:39;;;;;;;5.75;3.33;;;;;;;;;;5027176;28;20488;-58
2023/09/19 08:43:06;;;;;;;5.28;3.50;;;;;;;;;;5027349;28;20064;-60
2023/09/19 08:45:33;;;;;;;4.60;3.42;;;;;;;;;;5025999;28;20044;-58
2023/09/19 08:48:02;;;;;;;6.45;3.22;;;;;;;;;;5029841;28;20040;-58
2023/09/19 08:50:28;;;;;;;5.57;3.17;;;;;;;;;;5029387;28;20045;-58
2023/09/19 08:52:54;;;;;;;5.32;3.40;;;;;;;;;;5029366;28;20036;-58
2023/09/19 08:55:22;;;;;;;7.47;3.72;;;;;;;;;;5033387;28;20045;-59
2023/09/19 08:57:49;;;;;;;5.85;3.40;;;;;;;;;;5030487;28;20041;-58
2023/09/19 09:00:17;;;;;;;6.13;3.20;;;;;;;;;;5031725;28;20037;-57
2023/09/19 09:02:43;;;;;;;8.20;3.50;;;;;;;;;;5029253;28;20068;-58
2023/09/19 09:05:09;;;;;;;6.63;3.55;;;;;;;;;;5033985;28;20473;-60
2023/09/19 09:07:35;;;;;;;5.38;3.60;;;;;;;;;;5030345;28;20063;-57
2023/09/19 09:10:02;;;;;;;8.57;4.03;;;;;;;;;;5031257;28;20164;-57
2023/09/19 09:12:28;;;;;;;9.55;3.85;;;;;;;;;;5033108;28;20045;-58
2023/09/19 09:14:53;;;;;;;6.85;3.40;;;;;;;;;;5032742;28;20041;-58
2023/09/19 09:17:20;;;;;;;8.27;4.30;;;;;;;;;;5034367;28;20041;-57
2023/09/19 09:19:45;;;;;;;7.80;4.60;;;;;;;;;;5032416;28;20076;-58
2023/09/19 09:22:11;;;;;;;8.73;4.72;;;;;;;;;;5030606;28;20191;-58
2023/09/19 09:24:37;;;;;;;9.57;4.82;;;;;;;;;;5030681;28;20543;-58
2023/09/19 09:27:10;;;;;;;10.30;4.90;;;;;;;;;;5035075;28;20037;-59
2023/09/19 09:29:42;;;;;;;6.85;4.70;;;;;;;;;;5031830;28;20048;-58
2023/09/19 09:32:19;;;;;;;6.47;4.30;;;;;;;;;;5029060;28;20098;-58
2023/09/19 09:34:45;;;;;;;6.18;4.38;;;;;;;;;;5031791;28;20127;-59
2023/09/19 09:37:15;;;;;;;7.50;4.70;;;;;;;;;;5030711;28;20090;-59
2023/09/19 09:39:40;;;;;;;7.32;4.43;;;;;;;;;;5031165;28;20040;-59
2023/09/19 09:42:06;;;;;;;9.00;4.65;;;;;;;;;;5027403;28;20429;-58
2023/09/19 09:44:32;;;;;;;7.28;4.45;;;;;;;;;;5030754;28;20051;-58
2023/09/19 09:47:27;;;;;;;9.20;4.30;;;;;;;;;;5029578;28;20512;-58
2023/09/19 09:49:54;;;;;;;8.82;4.70;;;;;;;;;;5030932;28;20056;-58
2023/09/19 09:52:23;;;;;;;8.25;4.07;;;;;;;;;;5031523;28;20093;-59
2023/09/19 09:54:49;;;;;;;;;;;;;;;;;;5029693;28;20041;-57
2023/09/19 09:57:17;;;;;;;6.53;4.00;;;;;;;;;;5031204;28;19932;-59
2023/09/19 10:02:39;;;;;;;7.25;4.50;;;;;;;;;;5028703;28;20041;-58
2023/09/19 10:07:50;;;;;;;9.50;4.65;;;;;;;;;;5033979;28;20746;-59
2023/09/19 10:10:53;;;;;;;6.20;4.22;;;;;;;;;;5029243;28;20049;-58
2023/09/19 10:13:21;;;;;;;7.95;4.22;;;;;;;;;;5030746;28;20035;-59
2023/09/19 10:15:51;;;;;;;7.65;4.35;;;;;;;;;;5030707;28;20539;-58
2023/09/19 10:18:23;;;;;;;6.07;4.28;;;;;;;;;;5031003;28;20033;-59
2023/09/19 10:20:49;;;;;;;7.63;4.22;;;;;;;;;;5029417;28;20033;-62
2023/09/19 10:23:14;;;;;;;8.07;4.18;;;;;;;;;;5034081;28;20044;-58
2023/09/19 10:25:43;;;;;;;8.35;4.28;;;;;;;;;;5029350;28;20041;-59
2023/09/19 10:28:13;;;;;;;7.00;4.20;;;;;;;;;;5030073;28;20406;-58
2023/09/19 10:30:43;;;;;;;;;;;;;;;;;;5029305;28;20049;-57
2023/09/19 10:33:09;;;;;;;8.10;4.38;;;;;;;;;;5033215;28;19920;-58
2023/09/19 10:35:34;;;;;;;6.57;4.20;;;;;;;;;;5030154;28;20065;-59
2023/09/19 10:38:00;;;;;;;6.55;4.15;;;;;;;;;;5034974;28;20481;-58
2023/09/19 10:40:30;;;;;;;8.60;4.18;;;;;;;;;;5016735;28;20052;-58
2023/09/19 10:42:55;;;;;;;;;;;;;;;;;;5030632;28;20045;-58
2023/09/19 10:45:22;;;;;;;8.70;4.60;;;;;;;;;;5029810;28;19997;-59
2023/09/19 10:47:47;;;;;;;7.05;3.95;;;;;;;;;;5028542;28;20044;-59
2023/09/19 10:50:25;;;;;;;7.13;3.90;;;;;;;;;;5028809;28;20048;-59
2023/09/19 10:52:57;;;;;;;7.55;3.78;;;;;;;;;;5029117;28;20849;-58
2023/09/19 10:55:24;;;;;;;10.00;4.55;;;;;;;;;;5027368;28;20076;-58
2023/09/19 10:57:49;;;;;;;6.75;4.20;;;;;;;;;;5028042;28;20319;-58
2023/09/19 11:00:27;;;;;;;7.35;4.38;;;;;;;;;;5027874;28;20083;-60
2023/09/19 11:03:53;;;;;;;7.40;4.40;;;;;;;;;;5028558;28;20027;-58
2023/09/19 11:06:09;;;;;;;5.97;3.90;;;;;;;;;;5021338;28;20037;-57
2023/09/19 11:08:56;;;;;;;7.65;3.95;;;;;;;;;;5022189;28;20513;-56
2023/09/19 11:11:41;;;;;;;6.78;4.10;;;;;;;;;;5027293;28;20083;-58
2023/09/19 11:14:25;;;;;;;7.15;4.10;;;;;;;;;;5032278;28;20037;-59
2023/09/19 11:17:19;;;;;;;4.93;3.72;;;;;;;;;;5034012;28;20040;-58
2023/09/19 11:22:58;;;;;;;7.05;3.83;;;;;;;;;;5030358;28;20576;-58
2023/09/19 11:25:30;;;;;;;6.05;3.85;;;;;;;;;;5033012;28;20437;-56
2023/09/19 11:28:08;;;;;;;6.47;3.72;;;;;;;;;;5028901;28;20198;-60
2023/09/19 11:30:34;;;;;;;6.65;4.15;;;;;;;;;;5028275;28;20056;-57
2023/09/19 11:33:21;;;;;;;6.10;3.90;;;;;;;;;;5027336;28;20033;-58
2023/09/19 11:36:00;;;;;;;8.05;4.18;;;;;;;;;;5029424;28;20033;-59
2023/09/19 11:38:50;;;;;;;6.33;4.20;;;;;;;;;;5028909;28;20045;-57
2023/09/19 11:41:15;;;;;;;;;;;;;;;;;;5028100;28;20037;-57
2023/09/19 11:43:41;;;;;;;6.28;3.55;;;;;;;;;;5028658;28;19939;-58
2023/09/19 11:46:06;;;;;;;9.00;4.35;;;;;;;;;;5031740;28;20056;-58
2023/09/19 11:48:31;;;;;;;6.90;3.58;;;;;;;;;;5031734;28;20033;-57
2023/09/19 11:50:57;;;;;;;6.00;3.60;;;;;;;;;;5032975;28;20336;-56
2023/09/19 11:53:22;;;;;;;6.50;4.00;;;;;;;;;;5015140;28;20315;-57
2023/09/19 11:55:48;;;;;;;6.50;4.10;;;;;;;;;;5026144;28;20405;-57
2023/09/19 11:58:17;;;;;;;7.40;3.95;;;;;;;;;;5028472;28;20509;-56
2023/09/19 12:00:43;;;;;;;5.87;4.07;;;;;;;;;;5028467;28;20552;-56
2023/09/19 12:03:09;;;;;;;8.50;3.83;;;;;;;;;;5027157;28;20320;-57
2023/09/19 12:05:37;;;;;;;7.00;4.10;;;;;;;;;;5028946;28;20029;-57
2023/09/19 12:08:03;;;;;;;6.65;3.90;;;;;;;;;;5028558;28;20022;-57
2023/09/19 12:10:28;;;;;;;6.72;4.35;;;;;;;;;;5028355;28;20425;-59
2023/09/19 12:12:56;;;;;;;5.40;4.00;;;;;;;;;;5028836;28;20147;-56
2023/09/19 12:15:28;;;;;;;6.15;3.70;;;;;;;;;;5032794;28;20020;-58
2023/09/19 12:17:54;;;;;;;6.55;4.88;;;;;;;;;;5028223;28;20013;-57
2023/09/19 12:20:20;;;;;;;7.43;4.05;;;;;;;;;;5028120;28;20048;-57
2023/09/19 12:22:46;;;;;;;6.55;4.05;;;;;;;;;;5038365;28;20497;-58
2023/09/19 12:25:12;;;;;;;6.70;3.97;;;;;;;;;;5035787;28;20072;-59
2023/09/19 12:27:52;;;;;;;7.53;4.05;;;;;;;;;;5042016;28;20041;-57
2023/09/19 12:30:20;;;;;;;5.57;3.88;;;;;;;;;;5045872;28;20036;-58
2023/09/19 12:32:46;;;;;;;5.85;3.50;;;;;;;;;;5046406;28;20136;-56
2023/09/19 12:35:26;;;;;;;8.00;3.67;;;;;;;;;;5043872;28;20465;-59
2023/09/19 12:37:55;;;;;;;6.25;4.00;;;;;;;;;;5044881;28;20037;-58
2023/09/19 12:40:22;;;;;;;6.30;3.88;;;;;;;;;;5043476;28;20132;-59
2023/09/19 12:42:50;;;;;;;5.72;4.10;;;;;;;;;;5044772;28;20159;-58
2023/09/19 12:45:17;;;;;;;6.78;3.50;;;;;;;;;;5043801;28;20060;-58
2023/09/19 12:48:01;;;;;;;7.90;3.47;;;;;;;;;;5045666;28;20037;-58
2023/09/19 12:50:29;;;;;;;6.85;3.60;;;;;;;;;;5044374;28;20069;-58
2023/09/19 12:52:56;;;;;;;5.68;3.70;;;;;;;;;;5043732;28;20622;-58
2023/09/19 12:55:25;;;;;;;7.68;3.85;;;;;;;;;;5046129;28;20041;-58
2023/09/19 12:57:56;;;;;;;5.53;3.87;;;;;;;;;;5045926;28;20041;-59
2023/09/19 13:00:34;;;;;;;5.15;3.58;;;;;;;;;;5046475;28;20041;-57
2023/09/19 13:03:35;;;;;;;5.60;4.25;;;;;;;;;;5045603;28;20029;-59
2023/09/19 13:06:02;;;;;;;5.10;3.80;;;;;;;;;;5045365;28;20105;-57
2023/09/19 13:08:32;;;;;;;4.57;3.22;;;;;;;;;;5046537;28;20063;-58
2023/09/19 13:11:09;;;;;;;6.72;3.85;;;;;;;;;;5049775;28;20021;-58
2023/09/19 13:13:38;;;;;;;5.32;3.78;;;;;;;;;;5049767;28;20131;-57
2023/09/19 13:16:14;;;;;;;7.90;4.03;;;;;;;;;;5042852;28;20071;-57
2023/09/19 13:18:51;;;;;;;5.13;3.65;;;;;;;;;;5044650;28;20083;-57
2023/09/19 13:21:22;;;;;;;6.80;3.67;;;;;;;;;;5045322;28;20033;-57
2023/09/19 13:23:51;;;;;;;6.28;3.55;;;;;;;;;;5045376;28;20052;-57
2023/09/19 13:26:16;;;;;;;5.68;3.47;;;;;;;;;;5043446;28;20048;-58
2023/09/19 13:28:41;;;;;;;5.50;3.33;;;;;;;;;;5048118;28;20727;-57
2023/09/19 13:31:07;;;;;;;6.43;3.92;;;;;;;;;;5053862;28;20074;-58
2023/09/19 13:33:33;;;;;;;6.00;3.50;;;;;;;;;;5048852;28;20033;-57
2023/09/19 13:35:58;;;;;;;5.60;3.85;;;;;;;;;;5048172;28;20044;-57
2023/09/19 13:38:24;;;;;;;5.47;3.27;;;;;;;;;;5046309;28;20155;-58
2023/09/19 13:40:49;;;;;;;6.45;3.67;;;;;;;;;;5046125;28;20279;-57
2023/09/19 13:43:14;;;;;;;7.03;3.67;;;;;;;;;;5044634;28;20036;-57
2023/09/19 13:45:42;;;;;;;4.75;3.17;;;;;;;;;;5045019;28;20037;-58
2023/09/19 13:48:07;;;;;;;5.13;3.65;;;;;;;;;;5044644;28;20036;-59
2023/09/19 13:50:34;;;;;;;5.75;3.50;;;;;;;;;;5045627;28;20129;-58
2023/09/19 13:53:00;;;;;;;5.38;3.20;;;;;;;;;;5045640;28;20653;-57
2023/09/19 13:55:25;;;;;;;6.35;3.35;;;;;;;;;;5045839;28;20045;-57
2023/09/19 13:57:54;;;;;;;4.67;3.50;;;;;;;;;;5043558;28;20122;-57
2023/09/19 14:00:19;;;;;;;5.90;3.72;;;;;;;;;;5045613;28;20276;-59
2023/09/19 14:02:45;;;;;;;6.00;3.45;;;;;;;;;;5043966;28;20577;-59
2023/09/19 14:05:14;;;;;;;6.25;3.72;;;;;;;;;;5042212;28;20041;-59
2023/09/19 14:07:41;;;;;;;4.80;3.35;;;;;;;;;;5029136;28;20155;-59
2023/09/19 14:10:08;;;;;;;5.05;3.80;;;;;;;;;;5029609;28;20041;-59
2023/09/19 14:12:34;;;;;;;6.30;4.13;;;;;;;;;;5034428;28;20094;-60
2023/09/19 14:14:59;;;;;;;7.30;3.95;;;;;;;;;;5029690;28;20384;-59
2023/09/19 14:17:25;;;;;;;6.18;4.03;;;;;;;;;;5029021;28;20955;-59
2023/09/19 14:20:10;;;;;;;6.82;4.07;;;;;;;;;;5030024;28;20116;-59
2023/09/19 14:22:36;;;;;;;7.18;3.60;;;;;;;;;;5029508;28;20205;-58
2023/09/19 14:25:02;;;;;;;5.05;3.70;;;;;;;;;;5029860;28;20560;-58
2023/09/19 14:27:27;;;;;;;6.40;3.65;;;;;;;;;;5028945;28;20098;-58
2023/09/19 14:29:52;;;;;;;7.90;4.20;;;;;;;;;;5029032;28;20041;-59
2023/09/19 14:32:18;;;;;;;6.53;3.83;;;;;;;;;;5029996;28;20072;-58
2023/09/19 14:34:44;;;;;;;4.95;3.35;;;;;;;;;;5029764;28;20302;-57
2023/09/19 14:37:11;;;;;;;7.47;4.38;;;;;;;;;;5029843;28;20029;-58
2023/09/19 14:39:38;;;;;;;6.00;3.72;;;;;;;;;;5029797;28;20033;-58
2023/09/19 14:42:03;;;;;;;6.22;4.10;;;;;;;;;;5030640;28;20048;-59
2023/09/19 14:44:29;;;;;;;6.78;4.05;;;;;;;;;;5029111;28;20029;-58
2023/09/19 14:46:54;;;;;;;5.97;4.17;;;;;;;;;;5030696;28;20132;-57
2023/09/19 14:49:20;;;;;;;7.38;3.88;;;;;;;;;;5033216;28;20315;-58
2023/09/19 14:51:47;;;;;;;6.43;4.38;;;;;;;;;;5030185;28;20047;-57
2023/09/19 14:54:12;;;;;;;8.40;4.00;;;;;;;;;;5029746;28;20034;-57
2023/09/19 14:56:38;;;;;;;6.47;4.53;;;;;;;;;;5029340;28;20028;-58
2023/09/19 14:59:03;;;;;;;7.05;4.55;;;;;;;;;;5030349;28;20063;-57
2023/09/19 15:01:29;;;;;;;6.07;4.15;;;;;;;;;;5031032;28;20037;-58